sensor_id;sensor_type;location;lat;lon;timestamp;temperature;humidity
18733;DHT22;9495;51.210;2.934;2023-07-16T00:00:42;22.30;99.90
18733;DHT22;9495;51.210;2.934;2023-07-16T00:03:11;22.40;99.90
18733;DHT22;9495;51.210;2.934;2023-07-16T00:05:42;22.30;99.90
18733;DHT22;9495;51.210;2.934;2023-07-16T00:08:11;22.10;99.90
18733;DHT22;9495;51.210;2.934;2023-07-16T00:10:39;22.40;99.90
18733;DHT22;9495;51.210;2.934;2023-07-16T00:13:08;22.50;99.90
18733;DHT22;9495;51.210;2.934;2023-07-16T00:15:37;22.40;99.90
18733;DHT22;9495;51.210;2.934;2023-07-16T00:18:05;22.20;99.90
18733;DHT22;9495;51.210;2.934;2023-07-16T00:20:34;22.00;99.90
18733;DHT22;9495;51.210;2.934;2023-07-16T00:23:04;22.20;99.90
18733;DHT22;9495;51.210;2.934;2023-07-16T00:25:32;22.40;99.90
18733;DHT22;9495;51.210;2.934;2023-07-16T00:28:02;22.50;99.90
18733;DHT22;9495;51.210;2.934;2023-07-16T00:30:31;22.40;99.90
18733;DHT22;9495;51.210;2.934;2023-07-16T00:32:59;22.20;99.90
18733;DHT22;9495;51.210;2.934;2023-07-16T00:35:28;22.20;99.90
18733;DHT22;9495;51.210;2.934;2023-07-16T00:37:57;22.10;99.90
18733;DHT22;9495;51.210;2.934;2023-07-16T00:40:26;22.40;99.90
18733;DHT22;9495;51.210;2.934;2023-07-16T00:42:55;22.50;99.90
18733;DHT22;9495;51.210;2.934;2023-07-16T00:45:23;22.40;99.90
18733;DHT22;9495;51.210;2.934;2023-07-16T00:47:52;22.40;99.90
18733;DHT22;9495;51.210;2.934;2023-07-16T00:50:20;22.20;99.90
18733;DHT22;9495;51.210;2.934;2023-07-16T00:52:49;22.30;99.90
18733;DHT22;9495;51.210;2.934;2023-07-16T00:55:18;22.40;99.90
18733;DHT22;9495;51.210;2.934;2023-07-16T00:57:48;22.20;99.90
18733;DHT22;9495;51.210;2.934;2023-07-16T01:00:17;22.10;99.90
18733;DHT22;9495;51.210;2.934;2023-07-16T01:02:45;22.50;99.90
18733;DHT22;9495;51.210;2.934;2023-07-16T01:05:14;22.40;99.90
18733;DHT22;9495;51.210;2.934;2023-07-16T01:07:48;22.10;99.90
18733;DHT22;9495;51.210;2.934;2023-07-16T01:10:22;21.80;99.90
18733;DHT22;9495;51.210;2.934;2023-07-16T01:12:53;22.20;99.90
18733;DHT22;9495;51.210;2.934;2023-07-16T01:15:23;22.30;99.90
18733;DHT22;9495;51.210;2.934;2023-07-16T01:17:52;22.50;99.90
18733;DHT22;9495;51.210;2.934;2023-07-16T01:20:20;22.20;99.90
18733;DHT22;9495;51.210;2.934;2023-07-16T01:23:05;22.50;99.90
18733;DHT22;9495;51.210;2.934;2023-07-16T01:26:01;22.30;99.90
18733;DHT22;9495;51.210;2.934;2023-07-16T01:28:48;22.30;99.90
18733;DHT22;9495;51.210;2.934;2023-07-16T01:31:21;22.20;99.90
18733;DHT22;9495;51.210;2.934;2023-07-16T01:33:52;22.00;99.90
18733;DHT22;9495;51.210;2.934;2023-07-16T01:36:23;21.90;99.90
18733;DHT22;9495;51.210;2.934;2023-07-16T01:38:51;22.30;99.90
18733;DHT22;9495;51.210;2.934;2023-07-16T01:41:20;22.20;99.90
18733;DHT22;9495;51.210;2.934;2023-07-16T01:43:49;22.10;99.90
18733;DHT22;9495;51.210;2.934;2023-07-16T01:46:17;21.80;99.90
18733;DHT22;9495;51.210;2.934;2023-07-16T01:48:48;22.00;99.90
18733;DHT22;9495;51.210;2.934;2023-07-16T01:51:16;22.00;99.90
18733;DHT22;9495;51.210;2.934;2023-07-16T01:53:47;21.80;99.90
18733;DHT22;9495;51.210;2.934;2023-07-16T01:56:16;22.00;99.90
18733;DHT22;9495;51.210;2.934;2023-07-16T01:58:44;22.20;99.90
18733;DHT22;9495;51.210;2.934;2023-07-16T02:01:13;22.50;99.90
18733;DHT22;9495;51.210;2.934;2023-07-16T02:03:42;22.10;99.90
18733;DHT22;9495;51.210;2.934;2023-07-16T02:06:11;22.20;99.90
18733;DHT22;9495;51.210;2.934;2023-07-16T02:08:41;22.00;99.90
18733;DHT22;9495;51.210;2.934;2023-07-16T02:11:10;22.10;99.90
18733;DHT22;9495;51.210;2.934;2023-07-16T02:13:38;21.60;99.90
18733;DHT22;9495;51.210;2.934;2023-07-16T02:16:07;21.90;99.90
18733;DHT22;9495;51.210;2.934;2023-07-16T02:18:36;21.50;99.90
18733;DHT22;9495;51.210;2.934;2023-07-16T02:21:04;20.90;99.90
18733;DHT22;9495;51.210;2.934;2023-07-16T02:23:34;21.80;99.90
18733;DHT22;9495;51.210;2.934;2023-07-16T02:26:02;22.10;99.90
18733;DHT22;9495;51.210;2.934;2023-07-16T02:28:31;21.90;99.90
18733;DHT22;9495;51.210;2.934;2023-07-16T02:30:59;21.80;99.90
18733;DHT22;9495;51.210;2.934;2023-07-16T02:33:28;21.70;99.90
18733;DHT22;9495;51.210;2.934;2023-07-16T02:35:57;21.70;99.90
18733;DHT22;9495;51.210;2.934;2023-07-16T02:38:25;21.50;99.90
18733;DHT22;9495;51.210;2.934;2023-07-16T02:40:54;21.80;99.90
18733;DHT22;9495;51.210;2.934;2023-07-16T02:43:23;21.90;99.90
18733;DHT22;9495;51.210;2.934;2023-07-16T02:45:52;21.60;99.90
18733;DHT22;9495;51.210;2.934;2023-07-16T02:48:20;21.70;99.90
18733;DHT22;9495;51.210;2.934;2023-07-16T02:50:49;21.60;99.90
18733;DHT22;9495;51.210;2.934;2023-07-16T02:53:17;21.70;99.90
18733;DHT22;9495;51.210;2.934;2023-07-16T02:55:46;21.80;99.90
18733;DHT22;9495;51.210;2.934;2023-07-16T02:58:16;21.80;99.90
18733;DHT22;9495;51.210;2.934;2023-07-16T03:00:44;21.80;99.90
18733;DHT22;9495;51.210;2.934;2023-07-16T03:03:13;21.90;99.90
18733;DHT22;9495;51.210;2.934;2023-07-16T03:05:41;22.10;99.90
18733;DHT22;9495;51.210;2.934;2023-07-16T03:08:10;22.10;99.90
18733;DHT22;9495;51.210;2.934;2023-07-16T03:10:39;22.00;99.90
18733;DHT22;9495;51.210;2.934;2023-07-16T03:13:07;21.90;99.90
18733;DHT22;9495;51.210;2.934;2023-07-16T03:15:37;22.00;99.90
18733;DHT22;9495;51.210;2.934;2023-07-16T03:18:06;21.80;99.90
18733;DHT22;9495;51.210;2.934;2023-07-16T03:20:34;21.80;99.90
18733;DHT22;9495;51.210;2.934;2023-07-16T03:23:03;21.60;99.90
18733;DHT22;9495;51.210;2.934;2023-07-16T03:25:32;21.50;99.90
18733;DHT22;9495;51.210;2.934;2023-07-16T03:28:01;21.80;99.90
18733;DHT22;9495;51.210;2.934;2023-07-16T03:30:30;21.60;99.90
18733;DHT22;9495;51.210;2.934;2023-07-16T03:33:01;21.30;99.90
18733;DHT22;9495;51.210;2.934;2023-07-16T03:35:30;21.50;99.90
18733;DHT22;9495;51.210;2.934;2023-07-16T03:37:58;21.50;99.90
18733;DHT22;9495;51.210;2.934;2023-07-16T03:40:27;21.00;99.90
18733;DHT22;9495;51.210;2.934;2023-07-16T03:42:55;20.70;99.90
18733;DHT22;9495;51.210;2.934;2023-07-16T03:45:24;21.20;99.90
18733;DHT22;9495;51.210;2.934;2023-07-16T03:47:53;21.40;99.90
18733;DHT22;9495;51.210;2.934;2023-07-16T03:50:23;20.70;99.90
18733;DHT22;9495;51.210;2.934;2023-07-16T03:52:51;21.20;99.90
18733;DHT22;9495;51.210;2.934;2023-07-16T03:55:20;21.30;99.90
18733;DHT22;9495;51.210;2.934;2023-07-16T03:57:49;21.30;99.90
18733;DHT22;9495;51.210;2.934;2023-07-16T04:00:17;21.30;99.90
18733;DHT22;9495;51.210;2.934;2023-07-16T04:02:46;21.80;99.90
18733;DHT22;9495;51.210;2.934;2023-07-16T04:05:15;21.50;99.90
18733;DHT22;9495;51.210;2.934;2023-07-16T04:07:45;21.60;99.90
18733;DHT22;9495;51.210;2.934;2023-07-16T04:10:13;21.50;99.90
18733;DHT22;9495;51.210;2.934;2023-07-16T04:12:42;21.80;99.90
18733;DHT22;9495;51.210;2.934;2023-07-16T04:15:10;21.60;99.90
18733;DHT22;9495;51.210;2.934;2023-07-16T04:17:39;21.70;99.90
18733;DHT22;9495;51.210;2.934;2023-07-16T04:20:08;21.70;99.90
18733;DHT22;9495;51.210;2.934;2023-07-16T04:22:37;21.50;99.90
18733;DHT22;9495;51.210;2.934;2023-07-16T04:25:08;21.60;99.90
18733;DHT22;9495;51.210;2.934;2023-07-16T04:27:37;21.80;99.90
18733;DHT22;9495;51.210;2.934;2023-07-16T04:30:07;21.70;99.90
18733;DHT22;9495;51.210;2.934;2023-07-16T04:32:36;21.50;99.90
18733;DHT22;9495;51.210;2.934;2023-07-16T04:35:05;21.70;99.90
18733;DHT22;9495;51.210;2.934;2023-07-16T04:37:34;21.50;99.90
18733;DHT22;9495;51.210;2.934;2023-07-16T04:40:03;21.30;99.90
18733;DHT22;9495;51.210;2.934;2023-07-16T04:42:34;21.00;99.90
18733;DHT22;9495;51.210;2.934;2023-07-16T04:45:03;21.50;99.90
18733;DHT22;9495;51.210;2.934;2023-07-16T04:47:32;21.80;99.90
18733;DHT22;9495;51.210;2.934;2023-07-16T04:50:01;21.80;99.90
18733;DHT22;9495;51.210;2.934;2023-07-16T04:52:30;21.40;99.90
18733;DHT22;9495;51.210;2.934;2023-07-16T04:54:58;21.30;99.90
18733;DHT22;9495;51.210;2.934;2023-07-16T04:57:28;21.40;99.90
18733;DHT22;9495;51.210;2.934;2023-07-16T04:59:58;21.50;99.90
18733;DHT22;9495;51.210;2.934;2023-07-16T05:02:27;21.50;99.90
18733;DHT22;9495;51.210;2.934;2023-07-16T05:04:56;21.70;99.90
18733;DHT22;9495;51.210;2.934;2023-07-16T05:07:24;21.30;99.90
18733;DHT22;9495;51.210;2.934;2023-07-16T05:09:52;21.40;99.90
18733;DHT22;9495;51.210;2.934;2023-07-16T05:12:21;21.60;99.90
18733;DHT22;9495;51.210;2.934;2023-07-16T05:14:49;21.40;99.90
18733;DHT22;9495;51.210;2.934;2023-07-16T05:17:20;21.50;99.90
18733;DHT22;9495;51.210;2.934;2023-07-16T05:19:48;21.60;99.90
18733;DHT22;9495;51.210;2.934;2023-07-16T05:22:17;21.40;99.90
18733;DHT22;9495;51.210;2.934;2023-07-16T05:24:45;21.80;99.90
18733;DHT22;9495;51.210;2.934;2023-07-16T05:27:14;21.20;99.90
18733;DHT22;9495;51.210;2.934;2023-07-16T05:29:42;21.40;99.90
18733;DHT22;9495;51.210;2.934;2023-07-16T05:32:11;21.40;99.90
18733;DHT22;9495;51.210;2.934;2023-07-16T05:34:41;21.40;99.90
18733;DHT22;9495;51.210;2.934;2023-07-16T05:37:09;20.90;99.90
18733;DHT22;9495;51.210;2.934;2023-07-16T05:39:38;21.10;99.90
18733;DHT22;9495;51.210;2.934;2023-07-16T05:42:06;20.70;99.90
18733;DHT22;9495;51.210;2.934;2023-07-16T05:44:35;21.20;99.90
18733;DHT22;9495;51.210;2.934;2023-07-16T05:47:04;20.50;99.90
18733;DHT22;9495;51.210;2.934;2023-07-16T05:49:33;21.30;99.90
18733;DHT22;9495;51.210;2.934;2023-07-16T05:52:03;20.80;99.90
18733;DHT22;9495;51.210;2.934;2023-07-16T05:54:32;20.60;99.90
18733;DHT22;9495;51.210;2.934;2023-07-16T05:57:00;20.90;99.90
18733;DHT22;9495;51.210;2.934;2023-07-16T05:59:29;21.00;99.90
18733;DHT22;9495;51.210;2.934;2023-07-16T06:02:01;21.20;99.90
18733;DHT22;9495;51.210;2.934;2023-07-16T06:04:30;20.50;99.90
18733;DHT22;9495;51.210;2.934;2023-07-16T06:06:59;20.20;99.90
18733;DHT22;9495;51.210;2.934;2023-07-16T06:09:28;20.40;99.90
18733;DHT22;9495;51.210;2.934;2023-07-16T06:11:57;20.50;99.90
18733;DHT22;9495;51.210;2.934;2023-07-16T06:14:25;21.30;99.90
18733;DHT22;9495;51.210;2.934;2023-07-16T06:16:54;21.50;99.90
18733;DHT22;9495;51.210;2.934;2023-07-16T06:19:22;21.50;99.90
18733;DHT22;9495;51.210;2.934;2023-07-16T06:21:51;21.20;99.90
18733;DHT22;9495;51.210;2.934;2023-07-16T06:24:19;21.40;99.90
18733;DHT22;9495;51.210;2.934;2023-07-16T06:26:49;21.70;99.90
18733;DHT22;9495;51.210;2.934;2023-07-16T06:29:18;21.00;99.90
18733;DHT22;9495;51.210;2.934;2023-07-16T06:31:54;21.00;99.90
18733;DHT22;9495;51.210;2.934;2023-07-16T06:34:24;20.60;99.90
18733;DHT22;9495;51.210;2.934;2023-07-16T06:36:52;20.30;99.90
18733;DHT22;9495;51.210;2.934;2023-07-16T06:39:21;20.80;99.90
18733;DHT22;9495;51.210;2.934;2023-07-16T06:41:51;21.20;99.90
18733;DHT22;9495;51.210;2.934;2023-07-16T06:44:19;21.70;99.90
18733;DHT22;9495;51.210;2.934;2023-07-16T06:46:49;21.70;99.90
18733;DHT22;9495;51.210;2.934;2023-07-16T06:49:18;21.80;99.90
18733;DHT22;9495;51.210;2.934;2023-07-16T06:51:47;21.70;99.90
18733;DHT22;9495;51.210;2.934;2023-07-16T06:54:15;21.60;99.90
18733;DHT22;9495;51.210;2.934;2023-07-16T06:56:44;21.70;99.90
18733;DHT22;9495;51.210;2.934;2023-07-16T06:59:13;22.00;99.90
18733;DHT22;9495;51.210;2.934;2023-07-16T07:01:42;22.00;99.90
18733;DHT22;9495;51.210;2.934;2023-07-16T07:04:10;21.80;99.90
18733;DHT22;9495;51.210;2.934;2023-07-16T07:06:39;22.00;99.90
18733;DHT22;9495;51.210;2.934;2023-07-16T07:09:08;22.20;99.90
18733;DHT22;9495;51.210;2.934;2023-07-16T07:11:36;22.00;99.90
18733;DHT22;9495;51.210;2.934;2023-07-16T07:14:05;21.80;99.90
18733;DHT22;9495;51.210;2.934;2023-07-16T07:16:39;21.70;99.90
18733;DHT22;9495;51.210;2.934;2023-07-16T07:19:08;22.10;99.90
18733;DHT22;9495;51.210;2.934;2023-07-16T07:21:37;21.90;99.90
18733;DHT22;9495;51.210;2.934;2023-07-16T07:24:05;22.00;99.90
18733;DHT22;9495;51.210;2.934;2023-07-16T07:26:34;22.20;99.90
18733;DHT22;9495;51.210;2.934;2023-07-16T07:29:02;22.30;99.90
18733;DHT22;9495;51.210;2.934;2023-07-16T07:31:31;22.00;99.90
18733;DHT22;9495;51.210;2.934;2023-07-16T07:34:01;22.00;99.90
18733;DHT22;9495;51.210;2.934;2023-07-16T07:36:29;21.70;99.90
18733;DHT22;9495;51.210;2.934;2023-07-16T07:38:58;22.00;99.90
18733;DHT22;9495;51.210;2.934;2023-07-16T07:41:27;22.00;99.90
18733;DHT22;9495;51.210;2.934;2023-07-16T07:43:55;22.00;99.90
18733;DHT22;9495;51.210;2.934;2023-07-16T07:46:24;22.00;99.90
18733;DHT22;9495;51.210;2.934;2023-07-16T07:48:53;22.10;99.90
18733;DHT22;9495;51.210;2.934;2023-07-16T07:51:22;22.30;99.90
18733;DHT22;9495;51.210;2.934;2023-07-16T07:53:51;22.30;99.90
18733;DHT22;9495;51.210;2.934;2023-07-16T07:56:20;22.40;99.90
18733;DHT22;9495;51.210;2.934;2023-07-16T07:58:48;22.50;99.90
18733;DHT22;9495;51.210;2.934;2023-07-16T08:01:17;22.30;99.90
18733;DHT22;9495;51.210;2.934;2023-07-16T08:03:45;22.40;99.90
18733;DHT22;9495;51.210;2.934;2023-07-16T08:06:14;22.40;99.90
18733;DHT22;9495;51.210;2.934;2023-07-16T08:08:44;22.50;99.90
18733;DHT22;9495;51.210;2.934;2023-07-16T08:11:13;22.50;99.90
18733;DHT22;9495;51.210;2.934;2023-07-16T08:13:41;22.60;99.90
18733;DHT22;9495;51.210;2.934;2023-07-16T08:16:10;22.40;99.90
18733;DHT22;9495;51.210;2.934;2023-07-16T08:18:39;22.10;99.90
18733;DHT22;9495;51.210;2.934;2023-07-16T08:21:07;22.40;99.90
18733;DHT22;9495;51.210;2.934;2023-07-16T08:23:36;22.70;99.90
18733;DHT22;9495;51.210;2.934;2023-07-16T08:26:05;22.50;99.90
18733;DHT22;9495;51.210;2.934;2023-07-16T08:28:34;22.30;99.90
18733;DHT22;9495;51.210;2.934;2023-07-16T08:31:02;22.40;99.90
18733;DHT22;9495;51.210;2.934;2023-07-16T08:33:31;22.40;99.90
18733;DHT22;9495;51.210;2.934;2023-07-16T08:35:59;22.50;99.90
18733;DHT22;9495;51.210;2.934;2023-07-16T08:38:28;22.50;99.90
18733;DHT22;9495;51.210;2.934;2023-07-16T08:40:57;22.60;99.90
18733;DHT22;9495;51.210;2.934;2023-07-16T08:43:28;22.70;99.90
18733;DHT22;9495;51.210;2.934;2023-07-16T08:45:57;22.60;99.90
18733;DHT22;9495;51.210;2.934;2023-07-16T08:48:28;22.60;99.90
18733;DHT22;9495;51.210;2.934;2023-07-16T08:50:57;22.60;99.90
18733;DHT22;9495;51.210;2.934;2023-07-16T08:53:27;22.60;99.90
18733;DHT22;9495;51.210;2.934;2023-07-16T08:55:55;22.70;99.90
18733;DHT22;9495;51.210;2.934;2023-07-16T08:58:26;22.30;99.90
18733;DHT22;9495;51.210;2.934;2023-07-16T09:00:56;22.60;99.90
18733;DHT22;9495;51.210;2.934;2023-07-16T09:03:24;22.50;99.90
18733;DHT22;9495;51.210;2.934;2023-07-16T09:05:53;22.90;99.90
18733;DHT22;9495;51.210;2.934;2023-07-16T09:08:22;22.60;99.90
18733;DHT22;9495;51.210;2.934;2023-07-16T09:10:56;22.40;99.90
18733;DHT22;9495;51.210;2.934;2023-07-16T09:13:26;22.60;99.90
18733;DHT22;9495;51.210;2.934;2023-07-16T09:15:56;22.70;99.90
18733;DHT22;9495;51.210;2.934;2023-07-16T09:18:26;22.90;99.90
18733;DHT22;9495;51.210;2.934;2023-07-16T09:20:55;22.80;99.90
18733;DHT22;9495;51.210;2.934;2023-07-16T09:23:25;22.90;99.90
18733;DHT22;9495;51.210;2.934;2023-07-16T09:25:55;22.40;99.90
18733;DHT22;9495;51.210;2.934;2023-07-16T09:28:23;22.70;99.90
18733;DHT22;9495;51.210;2.934;2023-07-16T09:30:53;23.00;99.90
18733;DHT22;9495;51.210;2.934;2023-07-16T09:33:22;22.70;99.90
18733;DHT22;9495;51.210;2.934;2023-07-16T09:35:53;22.70;99.90
18733;DHT22;9495;51.210;2.934;2023-07-16T09:38:22;23.00;99.90
18733;DHT22;9495;51.210;2.934;2023-07-16T09:40:52;22.90;99.90
18733;DHT22;9495;51.210;2.934;2023-07-16T09:43:22;22.80;99.90
18733;DHT22;9495;51.210;2.934;2023-07-16T09:45:50;22.80;99.90
18733;DHT22;9495;51.210;2.934;2023-07-16T09:48:20;22.60;99.90
18733;DHT22;9495;51.210;2.934;2023-07-16T09:50:50;22.30;99.90
18733;DHT22;9495;51.210;2.934;2023-07-16T09:53:23;22.60;99.90
18733;DHT22;9495;51.210;2.934;2023-07-16T09:55:55;22.70;99.90
18733;DHT22;9495;51.210;2.934;2023-07-16T09:58:25;22.80;99.90
18733;DHT22;9495;51.210;2.934;2023-07-16T10:00:54;22.80;99.90
18733;DHT22;9495;51.210;2.934;2023-07-16T10:03:25;22.80;99.90
18733;DHT22;9495;51.210;2.934;2023-07-16T10:05:53;22.80;99.90
18733;DHT22;9495;51.210;2.934;2023-07-16T10:08:34;22.80;99.90
18733;DHT22;9495;51.210;2.934;2023-07-16T10:11:03;22.90;99.90
18733;DHT22;9495;51.210;2.934;2023-07-16T10:13:33;22.70;99.90
18733;DHT22;9495;51.210;2.934;2023-07-16T10:16:03;22.80;99.90
18733;DHT22;9495;51.210;2.934;2023-07-16T10:18:33;22.90;99.90
18733;DHT22;9495;51.210;2.934;2023-07-16T10:21:03;22.80;99.90
18733;DHT22;9495;51.210;2.934;2023-07-16T10:23:37;23.00;99.90
18733;DHT22;9495;51.210;2.934;2023-07-16T10:26:09;23.00;99.90
18733;DHT22;9495;51.210;2.934;2023-07-16T10:28:38;22.70;99.90
18733;DHT22;9495;51.210;2.934;2023-07-16T10:31:17;22.80;99.90
18733;DHT22;9495;51.210;2.934;2023-07-16T10:33:57;23.00;99.90
18733;DHT22;9495;51.210;2.934;2023-07-16T10:36:26;22.90;99.90
18733;DHT22;9495;51.210;2.934;2023-07-16T10:38:55;22.90;99.90
18733;DHT22;9495;51.210;2.934;2023-07-16T10:41:31;22.80;99.90
18733;DHT22;9495;51.210;2.934;2023-07-16T10:44:00;23.10;99.90
18733;DHT22;9495;51.210;2.934;2023-07-16T10:46:30;23.10;99.90
18733;DHT22;9495;51.210;2.934;2023-07-16T10:49:00;23.30;99.90
18733;DHT22;9495;51.210;2.934;2023-07-16T10:51:29;23.20;99.90
18733;DHT22;9495;51.210;2.934;2023-07-16T10:53:57;23.10;99.90
18733;DHT22;9495;51.210;2.934;2023-07-16T10:56:26;23.10;99.90
18733;DHT22;9495;51.210;2.934;2023-07-16T10:58:54;23.30;99.90
18733;DHT22;9495;51.210;2.934;2023-07-16T11:01:23;23.30;99.90
18733;DHT22;9495;51.210;2.934;2023-07-16T11:03:51;22.90;99.90
18733;DHT22;9495;51.210;2.934;2023-07-16T11:06:21;23.00;99.90
18733;DHT22;9495;51.210;2.934;2023-07-16T11:08:50;23.30;99.90
18733;DHT22;9495;51.210;2.934;2023-07-16T11:11:28;23.30;99.90
18733;DHT22;9495;51.210;2.934;2023-07-16T11:13:57;23.10;99.90
18733;DHT22;9495;51.210;2.934;2023-07-16T11:16:26;23.30;99.90
18733;DHT22;9495;51.210;2.934;2023-07-16T11:18:54;23.30;99.90
18733;DHT22;9495;51.210;2.934;2023-07-16T11:21:24;23.20;99.90
18733;DHT22;9495;51.210;2.934;2023-07-16T11:23:52;23.50;99.90
18733;DHT22;9495;51.210;2.934;2023-07-16T11:26:21;23.70;99.90
18733;DHT22;9495;51.210;2.934;2023-07-16T11:28:51;23.50;99.90
18733;DHT22;9495;51.210;2.934;2023-07-16T11:31:20;23.60;99.90
18733;DHT22;9495;51.210;2.934;2023-07-16T11:33:51;23.40;99.90
18733;DHT22;9495;51.210;2.934;2023-07-16T11:36:20;23.60;99.90
18733;DHT22;9495;51.210;2.934;2023-07-16T11:38:50;23.60;99.90
18733;DHT22;9495;51.210;2.934;2023-07-16T11:41:20;23.80;99.90
18733;DHT22;9495;51.210;2.934;2023-07-16T11:43:49;23.70;99.90
18733;DHT22;9495;51.210;2.934;2023-07-16T11:46:18;23.60;99.90
18733;DHT22;9495;51.210;2.934;2023-07-16T11:48:48;23.70;99.90
18733;DHT22;9495;51.210;2.934;2023-07-16T11:51:16;23.70;99.90
18733;DHT22;9495;51.210;2.934;2023-07-16T11:53:45;23.80;99.90
18733;DHT22;9495;51.210;2.934;2023-07-16T11:56:14;23.70;99.90
18733;DHT22;9495;51.210;2.934;2023-07-16T11:58:43;23.80;99.90
18733;DHT22;9495;51.210;2.934;2023-07-16T12:01:12;23.50;99.90
18733;DHT22;9495;51.210;2.934;2023-07-16T12:03:42;23.60;99.90
18733;DHT22;9495;51.210;2.934;2023-07-16T12:06:11;23.60;99.90
18733;DHT22;9495;51.210;2.934;2023-07-16T12:08:40;23.40;99.90
18733;DHT22;9495;51.210;2.934;2023-07-16T12:11:08;23.40;99.90
18733;DHT22;9495;51.210;2.934;2023-07-16T12:13:38;23.50;99.90
18733;DHT22;9495;51.210;2.934;2023-07-16T12:16:07;23.70;99.90
18733;DHT22;9495;51.210;2.934;2023-07-16T12:18:35;23.70;99.90
18733;DHT22;9495;51.210;2.934;2023-07-16T12:21:05;23.70;99.90
18733;DHT22;9495;51.210;2.934;2023-07-16T12:23:34;23.50;99.90
18733;DHT22;9495;51.210;2.934;2023-07-16T12:26:02;23.70;99.90
18733;DHT22;9495;51.210;2.934;2023-07-16T12:28:31;23.80;99.90
18733;DHT22;9495;51.210;2.934;2023-07-16T12:31:00;23.90;99.90
18733;DHT22;9495;51.210;2.934;2023-07-16T12:33:29;23.90;99.90
18733;DHT22;9495;51.210;2.934;2023-07-16T12:35:57;23.80;99.90
18733;DHT22;9495;51.210;2.934;2023-07-16T12:38:27;23.90;99.90
18733;DHT22;9495;51.210;2.934;2023-07-16T12:40:55;23.80;99.90
18733;DHT22;9495;51.210;2.934;2023-07-16T12:43:24;24.00;99.90
18733;DHT22;9495;51.210;2.934;2023-07-16T12:45:52;24.10;99.90
18733;DHT22;9495;51.210;2.934;2023-07-16T12:48:22;23.90;99.90
18733;DHT22;9495;51.210;2.934;2023-07-16T12:50:51;24.00;99.90
18733;DHT22;9495;51.210;2.934;2023-07-16T12:53:20;23.90;99.90
18733;DHT22;9495;51.210;2.934;2023-07-16T12:55:48;24.10;99.90
18733;DHT22;9495;51.210;2.934;2023-07-16T12:58:17;24.00;99.90
18733;DHT22;9495;51.210;2.934;2023-07-16T13:00:45;24.00;99.90
18733;DHT22;9495;51.210;2.934;2023-07-16T13:03:14;24.10;99.90
18733;DHT22;9495;51.210;2.934;2023-07-16T13:05:45;23.90;99.90
18733;DHT22;9495;51.210;2.934;2023-07-16T13:08:14;23.90;99.90
18733;DHT22;9495;51.210;2.934;2023-07-16T13:10:42;24.00;99.90
18733;DHT22;9495;51.210;2.934;2023-07-16T13:13:11;24.00;99.90
18733;DHT22;9495;51.210;2.934;2023-07-16T13:15:40;24.00;99.90
18733;DHT22;9495;51.210;2.934;2023-07-16T13:18:09;24.00;99.90
18733;DHT22;9495;51.210;2.934;2023-07-16T13:20:39;23.90;99.90
18733;DHT22;9495;51.210;2.934;2023-07-16T13:23:09;23.90;99.90
18733;DHT22;9495;51.210;2.934;2023-07-16T13:25:37;23.80;99.90
18733;DHT22;9495;51.210;2.934;2023-07-16T13:28:07;23.90;99.90
18733;DHT22;9495;51.210;2.934;2023-07-16T13:30:35;24.00;99.90
18733;DHT22;9495;51.210;2.934;2023-07-16T13:33:04;23.90;99.90
18733;DHT22;9495;51.210;2.934;2023-07-16T13:35:33;24.00;99.90
18733;DHT22;9495;51.210;2.934;2023-07-16T13:38:01;24.00;99.90
18733;DHT22;9495;51.210;2.934;2023-07-16T13:40:32;24.10;99.90
18733;DHT22;9495;51.210;2.934;2023-07-16T13:43:00;23.90;99.90
18733;DHT22;9495;51.210;2.934;2023-07-16T13:45:29;24.10;99.90
18733;DHT22;9495;51.210;2.934;2023-07-16T13:47:57;23.90;99.90
18733;DHT22;9495;51.210;2.934;2023-07-16T13:50:26;24.00;99.90
18733;DHT22;9495;51.210;2.934;2023-07-16T13:52:54;23.90;99.90
18733;DHT22;9495;51.210;2.934;2023-07-16T13:55:23;24.10;99.90
18733;DHT22;9495;51.210;2.934;2023-07-16T13:57:53;24.20;99.90
18733;DHT22;9495;51.210;2.934;2023-07-16T14:00:22;24.20;99.90
18733;DHT22;9495;51.210;2.934;2023-07-16T14:02:51;24.20;99.90
18733;DHT22;9495;51.210;2.934;2023-07-16T14:05:20;24.10;99.90
18733;DHT22;9495;51.210;2.934;2023-07-16T14:07:51;24.10;99.90
18733;DHT22;9495;51.210;2.934;2023-07-16T14:10:21;24.20;99.90
18733;DHT22;9495;51.210;2.934;2023-07-16T14:12:49;24.20;99.90
18733;DHT22;9495;51.210;2.934;2023-07-16T14:15:19;24.10;99.90
18733;DHT22;9495;51.210;2.934;2023-07-16T14:17:48;24.20;99.90
18733;DHT22;9495;51.210;2.934;2023-07-16T14:20:16;24.10;99.90
18733;DHT22;9495;51.210;2.934;2023-07-16T14:22:45;24.20;99.90
18733;DHT22;9495;51.210;2.934;2023-07-16T14:25:13;24.10;99.90
18733;DHT22;9495;51.210;2.934;2023-07-16T14:27:42;24.10;99.90
18733;DHT22;9495;51.210;2.934;2023-07-16T14:30:10;23.30;99.90
18733;DHT22;9495;51.210;2.934;2023-07-16T14:32:40;22.70;99.90
18733;DHT22;9495;51.210;2.934;2023-07-16T14:35:10;23.10;99.90
18733;DHT22;9495;51.210;2.934;2023-07-16T14:37:59;22.60;99.90
18733;DHT22;9495;51.210;2.934;2023-07-16T14:40:28;22.50;99.90
18733;DHT22;9495;51.210;2.934;2023-07-16T14:42:57;22.80;99.90
18733;DHT22;9495;51.210;2.934;2023-07-16T14:45:26;22.80;99.90
18733;DHT22;9495;51.210;2.934;2023-07-16T14:47:56;22.30;99.90
18733;DHT22;9495;51.210;2.934;2023-07-16T14:50:24;22.00;99.90
18733;DHT22;9495;51.210;2.934;2023-07-16T14:52:53;22.30;99.90
18733;DHT22;9495;51.210;2.934;2023-07-16T14:55:22;22.60;99.90
18733;DHT22;9495;51.210;2.934;2023-07-16T14:57:50;22.50;99.90
18733;DHT22;9495;51.210;2.934;2023-07-16T15:00:19;22.90;99.90
18733;DHT22;9495;51.210;2.934;2023-07-16T15:02:47;22.70;99.90
18733;DHT22;9495;51.210;2.934;2023-07-16T15:05:17;22.60;99.90
18733;DHT22;9495;51.210;2.934;2023-07-16T15:07:46;22.50;99.90
18733;DHT22;9495;51.210;2.934;2023-07-16T15:10:15;23.00;99.90
18733;DHT22;9495;51.210;2.934;2023-07-16T15:12:43;23.40;99.90
18733;DHT22;9495;51.210;2.934;2023-07-16T15:15:12;23.60;99.90
18733;DHT22;9495;51.210;2.934;2023-07-16T15:17:41;23.40;99.90
18733;DHT22;9495;51.210;2.934;2023-07-16T15:20:11;23.60;99.90
18733;DHT22;9495;51.210;2.934;2023-07-16T15:22:41;23.50;99.90
18733;DHT22;9495;51.210;2.934;2023-07-16T15:25:10;23.10;99.90
18733;DHT22;9495;51.210;2.934;2023-07-16T15:27:39;23.00;99.90
18733;DHT22;9495;51.210;2.934;2023-07-16T15:30:08;23.00;99.90
18733;DHT22;9495;51.210;2.934;2023-07-16T15:32:36;22.50;99.90
18733;DHT22;9495;51.210;2.934;2023-07-16T15:35:05;23.00;99.90
18733;DHT22;9495;51.210;2.934;2023-07-16T15:37:34;23.40;99.90
18733;DHT22;9495;51.210;2.934;2023-07-16T15:40:13;23.50;99.90
18733;DHT22;9495;51.210;2.934;2023-07-16T15:42:42;23.60;99.90
18733;DHT22;9495;51.210;2.934;2023-07-16T15:45:11;23.70;99.90
18733;DHT22;9495;51.210;2.934;2023-07-16T15:47:43;23.10;99.90
18733;DHT22;9495;51.210;2.934;2023-07-16T15:50:11;23.50;99.90
18733;DHT22;9495;51.210;2.934;2023-07-16T15:52:40;23.80;99.90
18733;DHT22;9495;51.210;2.934;2023-07-16T15:55:10;23.90;99.90
18733;DHT22;9495;51.210;2.934;2023-07-16T15:57:39;23.80;99.90